Portada
METAR-TAF:

METAR-TAF

Aeropuertos :

Copenhague, Dinamarca

Aeropuerto de Copenhague-Kastrup

latitud: 55-37N, longitud: 012-39E, altitud: 5 m

Observación

El informe se hizo hace 32 minutos, a las 23:50 UTC
Viento 4 kt del oeste
Temperatura 0°C
Humedad 93%
Presión 1008 hPa
Visibilidad 10 km o más
sin nubes por debajo de 1500 m y sin presencia de cumulonimbus.

METAR: EKCH 192350Z 26004KT CAVOK 00/M01 Q1008 R04L/710143 R04R/710165 R12/710160 NOSIG

Hora: 01:22 (00:22 UTC)

Pronóstico

El informe se hizo hace 1 hora y 25 minutos, a las 22:57 UTC
Pronóstico válido del 20 a las 00 UTC al 20 a las 24 UTC
Viento 5 kt del norte-noroeste
Visibilidad 10 km o más
Nubes dispersas a una altura de 3000 ft
Probabilidad 40%
del 20 a las 00 UTC al 20 a las 08 UTC
Visibilidad: 3000 m
Niebla baja

TAF: EKCH 192257Z 2000/2024 33005KT 9999 SCT030 PROB40 2000/2008 3000 MIFG

Observaciones y pronósticos meteorológicos de más de 4000 aeropuertos (mensajes METAR y TAF).

Los puntos amarillos y rojos representan las estaciones disponibles.

Ponga el ratón en el punto deseado para ver el nombre de la estación.

Haga clic para ver las observaciones y los pronósticos meteorológicos.

Para cambiar el mapa : haga clic en los botones verdes con una cruz de color negro para hacer un zoom, en el botón verde con un guión para alejar o en las flechas verdes para mapas adyacentes.


METAR-TAF: